createdAt,value
2022-12-18T00:00:44.079Z,93.22
2022-12-18T00:03:47.500Z,93.36
2022-12-18T00:06:50.898Z,92.38
2022-12-18T00:09:53.883Z,92.55
2022-12-18T00:12:56.538Z,93.11
2022-12-18T00:16:08.218Z,92.36
2022-12-18T00:19:11.137Z,92.59
2022-12-18T00:22:14.036Z,91.97
2022-12-18T00:25:20.752Z,92.13
2022-12-18T00:28:23.645Z,92.30
2022-12-18T00:31:27.243Z,92.76
2022-12-18T00:34:30.718Z,93.60
2022-12-18T00:37:35.251Z,93.86
2022-12-18T00:40:38.730Z,93.45
2022-12-18T00:43:41.994Z,93.71
2022-12-18T00:46:46.309Z,93.87
2022-12-18T00:49:49.137Z,93.09
2022-12-18T00:52:52.502Z,92.65
2022-12-18T00:55:55.128Z,93.75
2022-12-18T00:58:58.151Z,93.45
2022-12-18T01:02:00.885Z,93.07
2022-12-18T01:05:04.253Z,92.73
2022-12-18T01:08:06.868Z,92.56
2022-12-18T01:11:12.887Z,92.63
2022-12-18T01:14:17.012Z,93.24
2022-12-18T01:17:19.934Z,92.98
2022-12-18T01:20:22.523Z,92.76
2022-12-18T01:23:28.195Z,94.01
2022-12-18T01:26:30.810Z,94.25
2022-12-18T01:29:33.857Z,93.46
2022-12-18T01:32:36.537Z,93.44
2022-12-18T01:35:43.666Z,94.38
2022-12-18T01:38:46.707Z,93.53
2022-12-18T01:42:05.139Z,93.90
2022-12-18T01:45:32.018Z,94.43
2022-12-18T01:48:34.912Z,93.56
2022-12-18T01:51:37.906Z,93.48
2022-12-18T01:54:40.897Z,95.16
2022-12-18T01:57:43.871Z,94.61
2022-12-18T02:00:47.254Z,94.25
2022-12-18T02:03:50.764Z,93.71
2022-12-18T02:07:06.971Z,94.66
2022-12-18T02:10:09.877Z,94.70
2022-12-18T02:13:47.733Z,95.29
2022-12-18T02:17:14.119Z,94.87
2022-12-18T02:20:37.335Z,94.96
2022-12-18T02:24:01.999Z,93.83
2022-12-18T02:27:07.702Z,93.92
2022-12-18T02:30:11.466Z,93.67
2022-12-18T02:33:16.231Z,93.84
2022-12-18T02:36:21.878Z,93.37
2022-12-18T02:39:28.781Z,93.19
2022-12-18T02:42:33.394Z,92.97
2022-12-18T02:45:36.728Z,93.12
2022-12-18T02:48:40.097Z,93.21
2022-12-18T02:51:54.154Z,92.55
2022-12-18T02:55:15.486Z,92.43
2022-12-18T02:58:28.049Z,92.32
2022-12-18T03:01:40.313Z,91.79
2022-12-18T03:04:52.574Z,91.48
2022-12-18T03:08:25.439Z,90.68
2022-12-18T03:11:53.842Z,90.89
2022-12-18T03:15:19.969Z,90.88
2022-12-18T03:18:31.073Z,90.25
2022-12-18T03:21:56.832Z,90.11
2022-12-18T03:25:03.462Z,90.64
2022-12-18T03:28:11.023Z,91.38
2022-12-18T03:31:16.215Z,90.84
2022-12-18T03:34:30.639Z,89.98
2022-12-18T03:37:35.914Z,89.91
2022-12-18T03:41:02.720Z,90.21
2022-12-18T03:44:08.974Z,89.91
2022-12-18T03:47:11.602Z,90.16
2022-12-18T03:50:25.865Z,89.29
2022-12-18T03:53:54.598Z,89.83
2022-12-18T03:57:06.571Z,88.98
2022-12-18T04:00:14.723Z,88.84
2022-12-18T04:03:29.871Z,89.76
2022-12-18T04:06:37.181Z,89.44
2022-12-18T04:09:42.910Z,89.73
2022-12-18T04:12:46.087Z,90.40
2022-12-18T04:15:49.609Z,90.72
2022-12-18T04:18:54.042Z,91.02
2022-12-18T04:21:57.278Z,90.65
2022-12-18T04:25:00.370Z,90.30
2022-12-18T04:28:04.006Z,90.05
2022-12-18T04:31:06.918Z,89.72
2022-12-18T04:34:10.201Z,89.45
2022-12-18T04:37:13.238Z,89.75
2022-12-18T04:40:16.492Z,89.97
2022-12-18T04:43:20.036Z,89.66
2022-12-18T04:46:23.255Z,89.71
2022-12-18T04:49:25.943Z,89.53
2022-12-18T04:52:33.340Z,90.18
2022-12-18T04:55:35.981Z,90.73
2022-12-18T04:58:40.491Z,89.82
2022-12-18T05:01:43.277Z,89.98
2022-12-18T05:04:46.641Z,90.04
2022-12-18T05:07:49.263Z,90.44
2022-12-18T05:11:03.694Z,89.87
2022-12-18T05:14:06.276Z,91.11
2022-12-18T05:17:09.161Z,90.82
2022-12-18T05:20:11.940Z,91.33
2022-12-18T05:23:14.852Z,91.86
2022-12-18T05:26:19.535Z,92.13
2022-12-18T05:29:22.516Z,92.67
2022-12-18T05:32:25.195Z,91.60
2022-12-18T05:35:28.049Z,91.97
2022-12-18T05:38:32.929Z,91.82
2022-12-18T05:41:36.267Z,92.07
2022-12-18T05:44:38.901Z,91.85
2022-12-18T05:47:41.794Z,92.66
2022-12-18T05:50:46.591Z,92.26
2022-12-18T05:53:49.954Z,91.95
2022-12-18T05:56:52.561Z,93.11
2022-12-18T05:59:55.562Z,92.87
2022-12-18T06:02:58.175Z,93.10
2022-12-18T06:06:01.045Z,93.35
2022-12-18T06:09:09.316Z,93.75
2022-12-18T06:12:12.278Z,92.88
2022-12-18T06:15:14.807Z,92.75
2022-12-18T06:18:19.088Z,93.06
2022-12-18T06:21:21.704Z,93.05
2022-12-18T06:24:24.602Z,93.46
2022-12-18T06:27:27.243Z,93.47
2022-12-18T06:30:30.223Z,93.89
2022-12-18T06:33:33.635Z,94.00
2022-12-18T06:36:36.496Z,93.96
2022-12-18T06:39:40.064Z,94.08
2022-12-18T06:42:42.976Z,94.32
2022-12-18T06:45:45.656Z,94.23
2022-12-18T06:48:50.901Z,93.94
2022-12-18T06:51:53.558Z,93.83
2022-12-18T06:54:56.400Z,94.30
2022-12-18T06:57:59.027Z,94.74
2022-12-18T07:01:06.877Z,94.72
2022-12-18T07:04:09.807Z,94.69
2022-12-18T07:07:12.687Z,94.63
2022-12-18T07:10:15.433Z,94.61
2022-12-18T07:13:18.401Z,94.67
2022-12-18T07:16:25.232Z,94.25
2022-12-18T07:19:28.755Z,94.00
2022-12-18T07:22:32.083Z,93.75
2022-12-18T07:25:37.486Z,93.75
2022-12-18T07:28:42.122Z,93.02
2022-12-18T07:31:45.452Z,93.06
2022-12-18T07:34:48.237Z,93.64
2022-12-18T07:37:51.191Z,93.18
2022-12-18T07:40:53.800Z,93.68
2022-12-18T07:43:56.698Z,93.65
2022-12-18T07:46:59.339Z,93.76
2022-12-18T07:50:02.459Z,94.58
2022-12-18T07:53:05.857Z,95.35
2022-12-18T07:56:28.133Z,94.31
2022-12-18T07:59:31.019Z,92.67
2022-12-18T08:02:34.080Z,91.73
2022-12-18T08:05:37.651Z,93.37
2022-12-18T08:08:42.398Z,93.25
2022-12-18T08:11:46.196Z,93.44
2022-12-18T08:14:48.796Z,92.36
2022-12-18T08:17:51.690Z,91.31
2022-12-18T08:20:56.315Z,91.60
2022-12-18T08:24:01.571Z,91.17
2022-12-18T08:27:28.430Z,91.51
2022-12-18T08:30:27.178Z,91.96
2022-12-18T08:33:29.950Z,90.97
2022-12-18T08:36:32.794Z,91.51
2022-12-18T08:39:35.716Z,91.17
2022-12-18T08:42:57.162Z,90.01
2022-12-18T08:45:59.825Z,89.98
2022-12-18T08:49:03.015Z,90.04
2022-12-18T08:52:06.426Z,89.72
2022-12-18T08:55:10.053Z,88.63
2022-12-18T08:58:12.667Z,87.59
2022-12-18T09:01:15.614Z,88.08
2022-12-18T09:04:18.411Z,89.16
2022-12-18T09:07:21.335Z,89.52
2022-12-18T09:10:23.993Z,89.50
2022-12-18T09:13:27.426Z,89.08
2022-12-18T09:16:32.531Z,87.97
2022-12-18T09:19:35.783Z,87.33
2022-12-18T09:22:38.928Z,88.06
2022-12-18T09:25:41.833Z,87.07
2022-12-18T09:28:45.074Z,86.87
2022-12-18T09:31:48.336Z,85.57
2022-12-18T09:34:50.963Z,85.76
2022-12-18T09:37:54.429Z,85.74
2022-12-18T09:41:04.076Z,85.90
2022-12-18T09:44:29.183Z,85.65
2022-12-18T09:47:37.537Z,84.78
2022-12-18T09:50:41.612Z,85.22
2022-12-18T09:54:11.323Z,83.99
2022-12-18T09:57:22.854Z,82.84
2022-12-18T10:00:26.869Z,82.35
2022-12-18T10:03:29.980Z,81.61
2022-12-18T10:07:14.308Z,81.90
2022-12-18T10:10:39.248Z,81.77
2022-12-18T10:13:48.451Z,80.85
2022-12-18T10:17:01.551Z,80.54
2022-12-18T10:20:30.792Z,79.98
2022-12-18T10:23:52.775Z,78.55
2022-12-18T10:27:09.745Z,77.73
2022-12-18T10:30:22.538Z,78.39
2022-12-18T10:33:29.800Z,78.64
2022-12-18T10:36:32.699Z,77.35
2022-12-18T10:39:35.462Z,76.19
2022-12-18T10:42:38.521Z,76.48
2022-12-18T10:45:42.142Z,77.47
2022-12-18T10:48:47.739Z,77.09
2022-12-18T10:51:51.162Z,76.83
2022-12-18T10:54:56.561Z,76.93
2022-12-18T10:58:33.970Z,76.79
2022-12-18T11:01:53.860Z,77.03
2022-12-18T11:04:56.583Z,77.08
2022-12-18T11:08:01.371Z,76.29
2022-12-18T11:11:08.485Z,76.93
2022-12-18T11:14:22.189Z,76.77
2022-12-18T11:17:36.008Z,76.21
2022-12-18T11:20:40.125Z,73.97
2022-12-18T11:23:53.431Z,76.36
2022-12-18T11:27:02.716Z,76.12
2022-12-18T11:30:33.127Z,76.31
2022-12-18T11:33:53.118Z,74.38
2022-12-18T11:37:05.416Z,75.34
2022-12-18T11:40:17.650Z,75.60
2022-12-18T11:43:29.590Z,75.93
2022-12-18T11:46:38.235Z,74.53
2022-12-18T11:49:42.474Z,72.41
2022-12-18T11:52:45.867Z,74.79
2022-12-18T11:55:53.196Z,74.36
2022-12-18T11:59:14.602Z,73.69
2022-12-18T12:02:35.719Z,74.77
2022-12-18T12:06:43.631Z,74.94
2022-12-18T12:09:55.315Z,74.18
2022-12-18T12:13:35.356Z,73.57
2022-12-18T12:16:54.752Z,72.50
2022-12-18T12:20:04.064Z,73.17
2022-12-18T12:23:28.058Z,73.20
2022-12-18T12:26:55.263Z,73.24
2022-12-18T12:30:03.800Z,73.52
2022-12-18T12:33:26.083Z,73.46
2022-12-18T12:36:28.584Z,73.36
2022-12-18T12:39:41.211Z,73.79
2022-12-18T12:43:14.487Z,74.08
2022-12-18T12:46:21.052Z,74.23
2022-12-18T12:49:30.196Z,74.06
2022-12-18T12:52:41.809Z,73.90
2022-12-18T12:55:44.743Z,73.14
2022-12-18T12:59:03.175Z,73.01
2022-12-18T13:02:12.076Z,74.05
2022-12-18T13:05:32.671Z,74.22
2022-12-18T13:08:57.278Z,74.83
2022-12-18T13:12:25.332Z,74.43
2022-12-18T13:15:42.055Z,74.37
2022-12-18T13:18:54.251Z,73.68
2022-12-18T13:21:57.592Z,73.95
2022-12-18T13:25:01.073Z,73.64
2022-12-18T13:28:09.711Z,73.11
2022-12-18T13:31:14.232Z,73.37
2022-12-18T13:34:27.514Z,73.62
2022-12-18T13:37:34.653Z,74.30
2022-12-18T13:40:40.468Z,73.82
2022-12-18T13:43:51.515Z,73.82
2022-12-18T13:46:55.102Z,74.48
2022-12-18T13:49:59.270Z,74.19
2022-12-18T13:53:02.025Z,74.00
2022-12-18T13:56:05.969Z,75.12
2022-12-18T13:59:24.682Z,75.42
2022-12-18T14:02:29.846Z,75.51
2022-12-18T14:05:37.268Z,75.75
2022-12-18T14:08:44.548Z,76.41
2022-12-18T14:11:50.503Z,76.87
2022-12-18T14:14:55.235Z,77.10
2022-12-18T14:18:09.862Z,77.52
2022-12-18T14:21:21.985Z,78.21
2022-12-18T14:24:25.014Z,78.46
2022-12-18T14:27:27.639Z,80.08
2022-12-18T14:30:39.783Z,81.46
2022-12-18T14:33:42.748Z,82.33
2022-12-18T14:36:56.939Z,81.55
2022-12-18T14:40:08.645Z,82.49
2022-12-18T14:43:13.772Z,83.23
2022-12-18T14:46:39.398Z,84.18
2022-12-18T14:49:43.615Z,84.84
2022-12-18T14:52:46.422Z,84.16
2022-12-18T14:55:50.613Z,84.04
2022-12-18T14:58:59.871Z,84.63
2022-12-18T15:02:06.095Z,83.84
2022-12-18T15:05:25.511Z,83.99
2022-12-18T15:08:36.834Z,85.14
2022-12-18T15:11:42.754Z,85.61
2022-12-18T15:14:45.728Z,85.37
2022-12-18T15:17:48.501Z,86.39
2022-12-18T15:20:54.427Z,88.09
2022-12-18T15:24:00.344Z,88.04
2022-12-18T15:27:05.018Z,87.56
2022-12-18T15:30:10.807Z,88.20
2022-12-18T15:33:30.748Z,88.50
2022-12-18T15:36:37.399Z,88.69
2022-12-18T15:39:40.262Z,88.90
2022-12-18T15:43:02.471Z,89.54
2022-12-18T15:46:17.131Z,89.76
2022-12-18T15:49:20.071Z,89.84
2022-12-18T15:52:27.070Z,89.09
2022-12-18T15:55:48.719Z,88.79
2022-12-18T15:58:51.903Z,89.42
2022-12-18T16:01:55.221Z,89.40
2022-12-18T16:04:58.532Z,91.07
2022-12-18T16:08:01.435Z,90.79
2022-12-18T16:11:04.837Z,90.46
2022-12-18T16:14:28.246Z,90.47
2022-12-18T16:17:31.890Z,90.95
2022-12-18T16:20:34.824Z,91.55
2022-12-18T16:23:38.505Z,92.07
2022-12-18T16:26:43.028Z,92.35
2022-12-18T16:29:46.610Z,92.89
2022-12-18T16:32:49.695Z,92.43
2022-12-18T16:35:53.761Z,92.93
2022-12-18T16:38:56.621Z,92.88
2022-12-18T16:42:00.216Z,93.35
2022-12-18T16:45:07.329Z,92.40
2022-12-18T16:48:10.243Z,92.26
2022-12-18T16:51:13.219Z,92.80
2022-12-18T16:54:18.999Z,92.24
2022-12-18T16:57:25.526Z,92.20
2022-12-18T17:00:29.035Z,93.03
2022-12-18T17:03:31.967Z,93.12
2022-12-18T17:06:39.726Z,92.21
2022-12-18T17:09:43.069Z,92.30
2022-12-18T17:12:46.167Z,93.22
2022-12-18T17:15:49.459Z,92.80
2022-12-18T17:18:53.603Z,93.72
2022-12-18T17:21:56.515Z,92.94
2022-12-18T17:24:59.432Z,93.21
2022-12-18T17:28:02.338Z,93.09
2022-12-18T17:31:13.148Z,93.13
2022-12-18T17:34:16.104Z,94.09
2022-12-18T17:37:19.364Z,93.89
2022-12-18T17:40:22.270Z,93.74
2022-12-18T17:43:25.468Z,93.53
2022-12-18T17:46:30.803Z,93.62
2022-12-18T17:49:34.030Z,93.64
2022-12-18T17:52:37.446Z,93.73
2022-12-18T17:55:41.578Z,94.15
2022-12-18T17:58:45.361Z,93.23
2022-12-18T18:01:49.123Z,93.24
2022-12-18T18:04:52.512Z,93.23
2022-12-18T18:07:55.450Z,93.45
2022-12-18T18:11:21.644Z,93.74
2022-12-18T18:14:24.757Z,94.63
2022-12-18T18:17:27.912Z,94.08
2022-12-18T18:20:30.782Z,93.27
2022-12-18T18:23:35.294Z,94.00
2022-12-18T18:26:39.572Z,93.51
2022-12-18T18:29:42.800Z,92.70
2022-12-18T18:32:46.192Z,93.50
2022-12-18T18:35:56.296Z,93.83
2022-12-18T18:39:03.128Z,93.41
2022-12-18T18:42:06.342Z,93.08
2022-12-18T18:45:10.339Z,92.65
2022-12-18T18:48:14.133Z,92.63
2022-12-18T18:51:21.484Z,93.01
2022-12-18T18:54:26.506Z,93.45
2022-12-18T18:57:30.611Z,93.28
2022-12-18T19:00:33.782Z,93.21
2022-12-18T19:03:38.085Z,93.88
2022-12-18T19:06:42.873Z,93.74
2022-12-18T19:09:51.967Z,93.47
2022-12-18T19:13:14.173Z,93.45
2022-12-18T19:16:16.887Z,93.84
2022-12-18T19:19:23.269Z,93.60
2022-12-18T19:22:26.137Z,93.43
2022-12-18T19:25:40.179Z,93.46
2022-12-18T19:28:45.183Z,93.87
2022-12-18T19:31:48.417Z,93.95
2022-12-18T19:34:52.981Z,94.39
2022-12-18T19:37:56.274Z,94.95
2022-12-18T19:40:59.952Z,95.66
2022-12-18T19:44:08.351Z,94.58
2022-12-18T19:47:11.207Z,94.29
2022-12-18T19:50:14.844Z,94.58
2022-12-18T19:53:17.628Z,94.50
2022-12-18T19:56:23.582Z,94.10
2022-12-18T19:59:26.604Z,93.76
2022-12-18T20:02:31.241Z,94.16
2022-12-18T20:05:41.417Z,93.55
2022-12-18T20:08:44.555Z,93.04
2022-12-18T20:11:47.776Z,94.38
2022-12-18T20:14:50.824Z,93.59
2022-12-18T20:17:53.860Z,94.23
2022-12-18T20:20:57.260Z,93.24
2022-12-18T20:24:02.505Z,93.70
2022-12-18T20:27:07.734Z,93.58
2022-12-18T20:30:14.206Z,93.19
2022-12-18T20:33:17.228Z,93.29
2022-12-18T20:36:22.644Z,93.31
2022-12-18T20:39:27.651Z,93.95
2022-12-18T20:42:31.655Z,94.06
2022-12-18T20:45:34.452Z,93.49
2022-12-18T20:48:38.708Z,93.20
2022-12-18T20:51:41.661Z,93.54
2022-12-18T20:54:44.852Z,93.92
2022-12-18T20:57:48.281Z,93.49
2022-12-18T21:01:06.421Z,93.16
2022-12-18T21:04:09.541Z,92.60
2022-12-18T21:07:12.462Z,92.99
2022-12-18T21:10:15.441Z,92.62
2022-12-18T21:13:18.682Z,92.53
2022-12-18T21:16:21.389Z,91.58
2022-12-18T21:19:27.221Z,90.83
2022-12-18T21:22:30.241Z,90.53
2022-12-18T21:25:33.237Z,91.19
2022-12-18T21:28:35.935Z,91.55
2022-12-18T21:31:39.878Z,92.08
2022-12-18T21:34:47.778Z,91.12
2022-12-18T21:37:52.238Z,91.05
2022-12-18T21:40:56.208Z,91.06
2022-12-18T21:44:08.764Z,91.38
2022-12-18T21:47:22.326Z,91.62
2022-12-18T21:50:26.671Z,91.48
2022-12-18T21:53:29.181Z,92.94
2022-12-18T21:56:52.026Z,92.09
2022-12-18T21:59:54.721Z,91.11
2022-12-18T22:03:15.574Z,90.65
2022-12-18T22:06:20.764Z,91.63
2022-12-18T22:09:25.142Z,91.96
2022-12-18T22:12:43.275Z,90.66
2022-12-18T22:15:47.115Z,91.32
2022-12-18T22:18:50.046Z,91.11
2022-12-18T22:21:52.785Z,90.92
2022-12-18T22:24:55.648Z,90.78
2022-12-18T22:28:16.541Z,90.86
2022-12-18T22:31:19.503Z,91.36
2022-12-18T22:34:23.361Z,92.02
2022-12-18T22:37:26.359Z,91.93
2022-12-18T22:40:29.428Z,92.24
2022-12-18T22:43:33.482Z,91.70
2022-12-18T22:46:39.575Z,91.32
2022-12-18T22:49:42.523Z,91.23
2022-12-18T22:52:45.148Z,90.32
2022-12-18T22:55:47.992Z,91.01
2022-12-18T22:58:51.947Z,90.29
2022-12-18T23:01:59.230Z,90.61
2022-12-18T23:05:02.111Z,90.35
2022-12-18T23:08:05.222Z,90.90
2022-12-18T23:11:08.919Z,90.59
2022-12-18T23:14:12.334Z,90.55
2022-12-18T23:17:14.979Z,91.34
2022-12-18T23:20:17.811Z,90.83
2022-12-18T23:23:20.466Z,90.83
2022-12-18T23:26:25.172Z,91.66
2022-12-18T23:29:27.902Z,90.95
2022-12-18T23:32:30.832Z,90.10
2022-12-18T23:35:35.602Z,89.82
2022-12-18T23:38:39.199Z,90.44
2022-12-18T23:41:41.736Z,90.04
2022-12-18T23:44:44.630Z,91.03
2022-12-18T23:47:48.744Z,91.53
2022-12-18T23:50:54.379Z,89.84
2022-12-18T23:53:59.611Z,90.25
2022-12-18T23:57:02.682Z,90.59
